createdAt,value
2023-04-11T00:00:13.853Z,6.80
2023-04-11T00:02:41.361Z,6.90
2023-04-11T00:05:09.620Z,6.90
2023-04-11T00:07:37.302Z,6.90
2023-04-11T00:10:05.045Z,6.90
2023-04-11T00:12:32.308Z,7.00
2023-04-11T00:14:59.499Z,7.00
2023-04-11T00:17:29.087Z,7.00
2023-04-11T00:19:58.030Z,7.00
2023-04-11T00:22:25.220Z,7.00
2023-04-11T00:24:53.312Z,7.00
2023-04-11T00:27:21.886Z,7.00
2023-04-11T00:29:49.272Z,7.10
2023-04-11T00:32:16.566Z,7.10
2023-04-11T00:34:43.782Z,7.10
2023-04-11T00:37:12.998Z,7.10
2023-04-11T00:39:42.940Z,7.10
2023-04-11T00:42:10.134Z,7.10
2023-04-11T00:44:37.656Z,7.20
2023-04-11T00:47:07.264Z,7.20
2023-04-11T00:49:35.950Z,7.20
2023-04-11T00:52:04.473Z,7.20
2023-04-11T00:54:32.325Z,7.20
2023-04-11T00:57:04.711Z,7.20
2023-04-11T00:59:33.340Z,7.10
2023-04-11T01:02:01.712Z,7.10
2023-04-11T01:04:30.168Z,7.00
2023-04-11T01:07:04.375Z,7.00
2023-04-11T01:09:34.663Z,7.00
2023-04-11T01:12:03.235Z,6.90
2023-04-11T01:14:30.935Z,6.90
2023-04-11T01:16:58.864Z,6.90
2023-04-11T01:19:26.901Z,6.80
2023-04-11T01:21:56.274Z,6.80
2023-04-11T01:24:23.600Z,6.70
2023-04-11T01:26:50.958Z,6.70
2023-04-11T01:29:18.170Z,6.70
2023-04-11T01:31:45.577Z,6.60
2023-04-11T01:34:14.850Z,6.60
2023-04-11T01:36:43.131Z,6.60
2023-04-11T01:39:10.766Z,6.60
2023-04-11T01:41:38.830Z,6.50
2023-04-11T01:44:06.372Z,6.50
2023-04-11T01:46:34.033Z,6.50
2023-04-11T01:49:01.831Z,6.40
2023-04-11T01:51:29.193Z,6.40
2023-04-11T01:53:56.370Z,6.40
2023-04-11T01:56:23.627Z,6.40
2023-04-11T01:58:50.852Z,6.40
2023-04-11T02:01:19.279Z,6.40
2023-04-11T02:03:46.822Z,6.40
2023-04-11T02:06:15.724Z,6.40
2023-04-11T02:08:43.717Z,6.40
2023-04-11T02:11:11.265Z,6.40
2023-04-11T02:13:38.542Z,6.40
2023-04-11T02:16:11.949Z,6.40
2023-04-11T02:18:40.065Z,6.40
2023-04-11T02:21:07.401Z,6.40
2023-04-11T02:23:34.635Z,6.40
2023-04-11T02:26:02.740Z,6.40
2023-04-11T02:28:30.136Z,6.40
2023-04-11T02:30:57.407Z,6.40
2023-04-11T02:33:24.898Z,6.30
2023-04-11T02:35:52.184Z,6.40
2023-04-11T02:38:19.406Z,6.30
2023-04-11T02:40:47.059Z,6.30
2023-04-11T02:43:14.284Z,6.20
2023-04-11T02:45:41.632Z,6.20
2023-04-11T02:48:08.939Z,6.20
2023-04-11T02:50:36.380Z,6.20
2023-04-11T02:53:03.614Z,6.20
2023-04-11T02:55:30.863Z,6.10
2023-04-11T02:57:58.750Z,6.10
2023-04-11T03:00:26.434Z,6.10
2023-04-11T03:02:56.755Z,6.10
2023-04-11T03:05:24.087Z,6.10
2023-04-11T03:07:51.374Z,6.10
2023-04-11T03:10:18.779Z,6.00
2023-04-11T03:12:46.232Z,6.00
2023-04-11T03:15:15.636Z,5.90
2023-04-11T03:17:43.090Z,5.90
2023-04-11T03:20:14.045Z,5.90
2023-04-11T03:22:41.265Z,5.80
2023-04-11T03:25:09.116Z,5.80
2023-04-11T03:27:36.351Z,5.90
2023-04-11T03:30:04.037Z,5.80
2023-04-11T03:32:31.338Z,5.80
2023-04-11T03:35:01.236Z,5.80
2023-04-11T03:37:28.480Z,5.80
2023-04-11T03:39:55.900Z,5.80
2023-04-11T03:42:23.078Z,5.70
2023-04-11T03:44:50.344Z,5.70
2023-04-11T03:47:17.545Z,5.70
2023-04-11T03:49:44.759Z,5.70
2023-04-11T03:52:15.285Z,5.80
2023-04-11T03:54:42.407Z,5.80
2023-04-11T03:57:09.700Z,5.80
2023-04-11T03:59:36.896Z,5.80
2023-04-11T04:02:04.208Z,5.90
2023-04-11T04:04:33.656Z,5.90
2023-04-11T04:07:01.909Z,6.00
2023-04-11T04:09:29.091Z,6.10
2023-04-11T04:11:56.257Z,6.10
2023-04-11T04:14:23.565Z,6.20
2023-04-11T04:16:50.908Z,6.30
2023-04-11T04:19:18.204Z,6.50
2023-04-11T04:21:46.134Z,6.50
2023-04-11T04:24:13.284Z,6.60
2023-04-11T04:26:40.700Z,6.70
2023-04-11T04:29:10.715Z,6.80
2023-04-11T04:31:38.474Z,6.80
2023-04-11T04:34:10.449Z,6.80
2023-04-11T04:36:46.691Z,6.80
2023-04-11T04:39:18.737Z,6.80
2023-04-11T04:41:49.757Z,6.90
2023-04-11T04:44:16.897Z,6.90
2023-04-11T04:46:44.714Z,6.90
2023-04-11T04:49:11.953Z,6.90
2023-04-11T04:51:40.787Z,6.90
2023-04-11T04:54:08.045Z,7.00
2023-04-11T04:56:35.200Z,7.10
2023-04-11T04:59:02.548Z,7.10
2023-04-11T05:01:29.801Z,7.20
2023-04-11T05:04:00.667Z,7.30
2023-04-11T05:06:30.136Z,7.40
2023-04-11T05:08:59.215Z,7.50
2023-04-11T05:11:27.792Z,7.60
2023-04-11T05:13:56.024Z,7.80
2023-04-11T05:16:23.574Z,7.90
2023-04-11T05:18:50.798Z,8.00
2023-04-11T05:21:18.216Z,8.20
2023-04-11T05:23:45.535Z,8.30
2023-04-11T05:26:12.749Z,8.60
2023-04-11T05:28:39.890Z,8.80
2023-04-11T05:31:11.959Z,9.00
2023-04-11T05:33:40.402Z,9.00
2023-04-11T05:36:07.999Z,9.10
2023-04-11T05:38:35.133Z,9.20
2023-04-11T05:41:02.414Z,9.20
2023-04-11T05:43:29.625Z,9.30
2023-04-11T05:45:57.842Z,9.30
2023-04-11T05:48:25.047Z,9.30
2023-04-11T05:50:52.725Z,9.30
2023-04-11T05:53:19.927Z,9.30
2023-04-11T05:55:47.052Z,9.40
2023-04-11T05:58:14.199Z,9.50
2023-04-11T06:00:41.378Z,9.60
2023-04-11T06:03:09.801Z,9.70
2023-04-11T06:05:37.158Z,9.80
2023-04-11T06:08:07.384Z,10.00
2023-04-11T06:10:35.922Z,10.00
2023-04-11T06:13:03.181Z,10.10
2023-04-11T06:15:30.637Z,10.20
2023-04-11T06:17:57.868Z,10.20
2023-04-11T06:20:25.298Z,10.20
2023-04-11T06:22:52.575Z,10.20
2023-04-11T06:25:21.562Z,10.20
2023-04-11T06:27:48.746Z,10.20
2023-04-11T06:30:16.572Z,10.20
2023-04-11T06:32:43.907Z,10.30
2023-04-11T06:35:11.097Z,10.40
2023-04-11T06:37:38.276Z,10.50
2023-04-11T06:40:05.963Z,10.70
2023-04-11T06:42:33.186Z,10.70
2023-04-11T06:45:00.388Z,10.90
2023-04-11T06:47:27.639Z,10.90
2023-04-11T06:49:55.778Z,11.00
2023-04-11T06:52:23.053Z,11.10
2023-04-11T06:54:50.189Z,11.30
2023-04-11T06:57:18.122Z,11.40
2023-04-11T06:59:45.347Z,11.70
2023-04-11T07:02:12.600Z,12.00
2023-04-11T07:04:39.961Z,12.20
2023-04-11T07:07:07.297Z,12.40
2023-04-11T07:09:34.564Z,12.70
2023-04-11T07:12:01.932Z,12.90
2023-04-11T07:14:29.058Z,13.10
2023-04-11T07:16:56.348Z,13.20
2023-04-11T07:19:23.520Z,13.30
2023-04-11T07:21:50.706Z,13.50
2023-04-11T07:24:18.833Z,13.70
2023-04-11T07:26:46.835Z,13.80
2023-04-11T07:29:14.863Z,13.90
2023-04-11T07:31:42.583Z,14.00
2023-04-11T07:34:09.865Z,14.10
2023-04-11T07:36:37.077Z,14.30
2023-04-11T07:39:04.829Z,14.40
2023-04-11T07:41:32.008Z,14.50
2023-04-11T07:43:59.192Z,14.50
2023-04-11T07:46:26.408Z,14.40
2023-04-11T07:48:53.544Z,14.40
2023-04-11T07:51:20.852Z,14.30
2023-04-11T07:53:48.027Z,14.20
2023-04-11T07:56:15.795Z,14.10
2023-04-11T07:58:43.350Z,14.00
2023-04-11T08:01:25.192Z,14.00
2023-04-11T08:03:54.174Z,14.00
2023-04-11T08:06:21.718Z,13.90
2023-04-11T08:08:50.390Z,13.90
2023-04-11T08:11:17.631Z,13.90
2023-04-11T08:13:45.376Z,14.00
2023-04-11T08:16:15.447Z,14.40
2023-04-11T08:18:43.029Z,14.70
2023-04-11T08:21:13.899Z,15.10
2023-04-11T08:23:53.744Z,15.10
2023-04-11T08:26:21.610Z,15.10
2023-04-11T08:28:48.757Z,15.10
2023-04-11T08:31:15.991Z,15.10
2023-04-11T08:33:43.334Z,15.40
2023-04-11T08:36:11.523Z,15.60
2023-04-11T08:38:40.471Z,15.90
2023-04-11T08:41:07.836Z,16.20
2023-04-11T08:43:36.399Z,16.30
2023-04-11T08:46:08.298Z,16.30
2023-04-11T08:48:35.990Z,16.40
2023-04-11T08:51:03.188Z,16.50
2023-04-11T08:53:31.108Z,16.50
2023-04-11T08:56:00.076Z,16.60
2023-04-11T08:58:27.285Z,16.80
2023-04-11T09:00:54.469Z,16.90
2023-04-11T09:03:21.952Z,17.00
2023-04-11T09:05:49.395Z,17.20
2023-04-11T09:08:17.466Z,17.40
2023-04-11T09:10:45.856Z,17.40
2023-04-11T09:13:22.201Z,17.20
2023-04-11T09:16:12.320Z,17.00
2023-04-11T09:18:44.231Z,16.90
2023-04-11T09:21:14.377Z,16.70
2023-04-11T09:23:42.065Z,16.60
2023-04-11T09:26:11.300Z,16.60
2023-04-11T09:28:52.656Z,16.70
2023-04-11T09:31:42.846Z,16.90
2023-04-11T09:34:11.565Z,17.00
2023-04-11T09:36:39.385Z,17.20
2023-04-11T09:39:19.286Z,17.50
2023-04-11T09:41:46.870Z,17.50
2023-04-11T09:44:14.466Z,17.20
2023-04-11T09:46:58.282Z,16.90
2023-04-11T09:49:26.038Z,16.90
2023-04-11T09:51:54.321Z,16.80
2023-04-11T09:54:24.476Z,16.80
2023-04-11T09:56:51.687Z,16.90
2023-04-11T09:59:21.526Z,17.00
2023-04-11T10:01:50.956Z,16.90
2023-04-11T10:04:20.708Z,16.90
2023-04-11T10:07:12.863Z,17.00
2023-04-11T10:09:43.661Z,17.20
2023-04-11T10:12:11.124Z,17.30
2023-04-11T10:14:38.358Z,17.40
2023-04-11T10:17:23.998Z,17.50
2023-04-11T10:19:57.896Z,17.60
2023-04-11T10:22:46.686Z,17.90
2023-04-11T10:25:27.350Z,18.00
2023-04-11T10:28:00.746Z,18.20
2023-04-11T10:30:40.538Z,18.50
2023-04-11T10:33:14.968Z,18.90
2023-04-11T10:36:11.758Z,18.90
2023-04-11T10:38:44.678Z,18.90
2023-04-11T10:41:25.330Z,18.80
2023-04-11T10:43:53.040Z,18.60
2023-04-11T10:46:25.039Z,18.50
2023-04-11T10:49:05.656Z,18.60
2023-04-11T10:51:34.998Z,18.90
2023-04-11T10:54:02.912Z,19.10
2023-04-11T10:56:49.039Z,19.30
2023-04-11T10:59:37.091Z,19.50
2023-04-11T11:02:04.312Z,19.50
2023-04-11T11:04:40.441Z,19.40
2023-04-11T11:07:14.037Z,19.40
2023-04-11T11:09:41.360Z,19.50
2023-04-11T11:12:10.123Z,19.50
2023-04-11T11:14:38.378Z,19.60
2023-04-11T11:17:05.974Z,19.70
2023-04-11T11:19:33.999Z,19.90
2023-04-11T11:22:05.041Z,19.90
2023-04-11T11:24:32.633Z,19.90
2023-04-11T11:27:00.070Z,19.90
2023-04-11T11:29:39.524Z,19.50
2023-04-11T11:32:07.198Z,19.10
2023-04-11T11:34:35.637Z,18.70
2023-04-11T11:37:06.930Z,18.20
2023-04-11T11:39:35.770Z,17.80
2023-04-11T11:42:03.670Z,17.20
2023-04-11T11:44:31.779Z,17.00
2023-04-11T11:47:09.353Z,16.70
2023-04-11T11:49:54.500Z,16.50
2023-04-11T11:52:41.418Z,16.30
2023-04-11T11:55:22.642Z,16.10
2023-04-11T11:57:50.811Z,16.00
2023-04-11T12:00:26.289Z,16.40
2023-04-11T12:02:57.223Z,16.90
2023-04-11T12:05:30.387Z,17.10
2023-04-11T12:08:00.102Z,17.10
2023-04-11T12:10:37.762Z,17.30
2023-04-11T12:13:27.320Z,17.70
2023-04-11T12:16:01.760Z,17.90
2023-04-11T12:18:28.995Z,18.10
2023-04-11T12:20:56.251Z,18.30
2023-04-11T12:23:23.515Z,18.00
2023-04-11T12:25:50.869Z,17.60
2023-04-11T12:28:18.067Z,17.30
2023-04-11T12:30:45.232Z,17.40
2023-04-11T12:33:12.380Z,17.20
2023-04-11T12:35:39.654Z,17.10
2023-04-11T12:38:08.072Z,17.10
2023-04-11T12:40:35.410Z,17.10
2023-04-11T12:43:02.601Z,16.90
2023-04-11T12:45:29.962Z,16.80
2023-04-11T12:47:57.249Z,16.60
2023-04-11T12:50:24.730Z,16.80
2023-04-11T12:52:52.695Z,17.30
2023-04-11T12:55:20.023Z,17.80
2023-04-11T12:57:47.294Z,18.30
2023-04-11T13:00:15.192Z,18.80
2023-04-11T13:02:44.949Z,19.10
2023-04-11T13:05:15.699Z,19.30
2023-04-11T13:07:47.728Z,19.40
2023-04-11T13:10:16.500Z,19.40
2023-04-11T13:12:45.163Z,19.50
2023-04-11T13:15:14.695Z,19.70
2023-04-11T13:17:42.073Z,20.10
2023-04-11T13:20:11.874Z,20.50
2023-04-11T13:22:42.892Z,20.90
2023-04-11T13:25:11.205Z,21.30
2023-04-11T13:27:39.818Z,21.70
2023-04-11T13:30:08.313Z,22.10
2023-04-11T13:32:35.635Z,22.50
2023-04-11T13:35:04.054Z,22.60
2023-04-11T13:37:31.436Z,22.60
2023-04-11T13:39:58.721Z,22.80
2023-04-11T13:42:26.222Z,23.00
2023-04-11T13:44:53.774Z,23.10
2023-04-11T13:47:21.096Z,23.10
2023-04-11T13:49:48.361Z,22.80
2023-04-11T13:52:15.808Z,22.50
2023-04-11T13:54:42.983Z,22.60
2023-04-11T13:57:10.127Z,22.60
2023-04-11T13:59:37.385Z,22.70
2023-04-11T14:02:04.823Z,22.60
2023-04-11T14:04:32.248Z,22.50
2023-04-11T14:06:59.757Z,22.40
2023-04-11T14:09:26.980Z,22.20
2023-04-11T14:11:54.131Z,22.00
2023-04-11T14:14:21.388Z,21.90
2023-04-11T14:16:48.687Z,22.20
2023-04-11T14:19:16.514Z,22.30
2023-04-11T14:21:43.732Z,22.50
2023-04-11T14:24:11.013Z,22.50
2023-04-11T14:26:38.221Z,22.30
2023-04-11T14:29:05.420Z,22.20
2023-04-11T14:31:32.725Z,22.10
2023-04-11T14:34:00.107Z,22.10
2023-04-11T14:36:28.175Z,21.90
2023-04-11T14:38:55.486Z,21.80
2023-04-11T14:41:23.470Z,21.80
2023-04-11T14:43:51.021Z,21.90
2023-04-11T14:46:18.440Z,21.70
2023-04-11T14:48:45.638Z,21.10
2023-04-11T14:51:12.893Z,20.90
2023-04-11T14:53:40.091Z,20.90
2023-04-11T14:56:07.907Z,20.60
2023-04-11T14:58:35.217Z,20.10
2023-04-11T15:01:02.502Z,19.50
2023-04-11T15:03:29.975Z,18.80
2023-04-11T15:05:57.527Z,18.30
2023-04-11T15:08:24.767Z,17.90
2023-04-11T15:10:54.646Z,17.40
2023-04-11T15:13:22.994Z,17.10
2023-04-11T15:15:50.334Z,16.80
2023-04-11T15:18:28.254Z,16.60
2023-04-11T15:20:57.040Z,16.40
2023-04-11T15:23:24.628Z,16.60
2023-04-11T15:25:57.020Z,17.00
2023-04-11T15:28:25.572Z,17.50
2023-04-11T15:30:54.480Z,18.10
2023-04-11T15:33:25.147Z,18.30
2023-04-11T15:35:57.804Z,18.70
2023-04-11T15:38:26.732Z,18.90
2023-04-11T15:40:56.530Z,19.00
2023-04-11T15:43:24.317Z,19.00
2023-04-11T15:45:52.746Z,18.80
2023-04-11T15:48:19.905Z,18.50
2023-04-11T15:50:47.157Z,18.30
2023-04-11T15:53:14.496Z,18.50
2023-04-11T15:55:43.323Z,18.60
2023-04-11T15:58:11.108Z,18.70
2023-04-11T16:00:39.604Z,18.90
2023-04-11T16:03:08.897Z,18.90
2023-04-11T16:05:41.052Z,18.70
2023-04-11T16:08:08.465Z,18.40
2023-04-11T16:10:35.965Z,18.00
2023-04-11T16:13:03.321Z,17.60
2023-04-11T16:15:30.590Z,17.20
2023-04-11T16:17:57.967Z,16.90
2023-04-11T16:20:25.452Z,16.70
2023-04-11T16:22:52.618Z,16.40
2023-04-11T16:25:21.666Z,16.20
2023-04-11T16:27:50.212Z,16.00
2023-04-11T16:30:17.579Z,15.80
2023-04-11T16:32:44.913Z,15.60
2023-04-11T16:35:12.189Z,15.40
2023-04-11T16:37:39.448Z,15.10
2023-04-11T16:40:11.665Z,14.90
2023-04-11T16:42:39.907Z,14.80
2023-04-11T16:45:08.247Z,14.70
2023-04-11T16:47:35.771Z,14.60
2023-04-11T16:50:04.056Z,14.50
2023-04-11T16:52:31.984Z,14.40
2023-04-11T16:54:59.112Z,14.20
2023-04-11T16:57:27.640Z,14.10
2023-04-11T16:59:55.006Z,14.00
2023-04-11T17:02:22.208Z,13.80
2023-04-11T17:04:49.607Z,13.70
2023-04-11T17:07:17.520Z,13.60
2023-04-11T17:09:47.895Z,13.50
2023-04-11T17:12:15.074Z,13.40
2023-04-11T17:14:42.494Z,13.20
2023-04-11T17:17:09.621Z,13.20
2023-04-11T17:19:37.025Z,13.10
2023-04-11T17:22:06.130Z,13.00
2023-04-11T17:24:33.313Z,12.90
2023-04-11T17:27:00.667Z,12.80
2023-04-11T17:29:27.929Z,12.70
2023-04-11T17:31:55.040Z,12.70
2023-04-11T17:34:22.272Z,12.60
2023-04-11T17:36:49.491Z,12.50
2023-04-11T17:39:18.160Z,12.40
2023-04-11T17:41:46.326Z,12.30
2023-04-11T17:44:13.936Z,12.30
2023-04-11T17:46:41.362Z,12.30
2023-04-11T17:49:08.798Z,12.20
2023-04-11T17:51:38.946Z,12.20
2023-04-11T17:54:10.201Z,12.20
2023-04-11T17:56:37.293Z,12.20
2023-04-11T17:59:04.407Z,12.10
2023-04-11T18:01:32.646Z,12.10
2023-04-11T18:04:01.587Z,12.10
2023-04-11T18:06:29.860Z,12.10
2023-04-11T18:08:57.156Z,12.10
2023-04-11T18:11:24.598Z,12.10
2023-04-11T18:13:51.865Z,12.00
2023-04-11T18:16:19.244Z,11.90
2023-04-11T18:18:47.728Z,11.70
2023-04-11T18:21:16.260Z,11.70
2023-04-11T18:23:43.992Z,11.50
2023-04-11T18:26:13.464Z,11.30
2023-04-11T18:28:40.610Z,11.10
2023-04-11T18:31:07.976Z,11.10
2023-04-11T18:33:37.529Z,11.00
2023-04-11T18:36:07.743Z,11.00
2023-04-11T18:38:34.937Z,10.90
2023-04-11T18:41:06.499Z,10.90
2023-04-11T18:43:35.328Z,10.90
2023-04-11T18:46:02.591Z,10.80
2023-04-11T18:48:31.033Z,10.80
2023-04-11T18:51:01.701Z,10.80
2023-04-11T18:53:30.212Z,10.70
2023-04-11T18:55:58.137Z,10.70
2023-04-11T18:58:26.519Z,10.70
2023-04-11T19:00:55.114Z,10.60
2023-04-11T19:03:23.731Z,10.60
2023-04-11T19:05:51.926Z,10.60
2023-04-11T19:08:19.083Z,10.40
2023-04-11T19:10:46.606Z,10.40
2023-04-11T19:13:14.138Z,10.30
2023-04-11T19:15:42.162Z,10.30
2023-04-11T19:18:10.671Z,10.20
2023-04-11T19:20:39.126Z,10.10
2023-04-11T19:23:06.562Z,10.10
2023-04-11T19:25:34.108Z,10.00
2023-04-11T19:28:01.285Z,10.00
2023-04-11T19:30:28.846Z,9.90
2023-04-11T19:32:57.330Z,9.90
2023-04-11T19:35:25.517Z,9.80
2023-04-11T19:37:53.134Z,9.80
2023-04-11T19:40:23.501Z,9.70
2023-04-11T19:42:51.667Z,9.70
2023-04-11T19:45:19.033Z,9.60
2023-04-11T19:47:46.576Z,9.60
2023-04-11T19:50:13.988Z,9.50
2023-04-11T19:52:42.566Z,9.50
2023-04-11T19:55:11.010Z,9.40
2023-04-11T19:57:43.987Z,9.40
2023-04-11T20:00:16.179Z,9.30
2023-04-11T20:02:46.030Z,9.30
2023-04-11T20:05:18.822Z,9.20
2023-04-11T20:07:46.899Z,9.20
2023-04-11T20:10:15.039Z,9.10
2023-04-11T20:12:42.427Z,9.10
2023-04-11T20:15:10.954Z,9.10
2023-04-11T20:17:38.223Z,9.00
2023-04-11T20:20:09.123Z,9.00
2023-04-11T20:22:38.516Z,8.90
2023-04-11T20:25:07.559Z,8.80
2023-04-11T20:27:34.676Z,8.70
2023-04-11T20:30:07.013Z,8.60
2023-04-11T20:32:34.206Z,8.50
2023-04-11T20:35:01.788Z,8.50
2023-04-11T20:37:32.168Z,8.40
2023-04-11T20:39:59.359Z,8.30
2023-04-11T20:42:28.373Z,8.30
2023-04-11T20:45:06.284Z,8.20
2023-04-11T20:47:37.768Z,8.20
2023-04-11T20:50:10.600Z,8.20
2023-04-11T20:52:38.623Z,8.10
2023-04-11T20:55:06.174Z,8.10
2023-04-11T20:57:33.891Z,8.00
2023-04-11T21:00:01.976Z,8.00
2023-04-11T21:02:29.157Z,8.00
2023-04-11T21:04:56.504Z,7.90
2023-04-11T21:07:23.856Z,7.90
2023-04-11T21:09:51.164Z,7.80
2023-04-11T21:12:18.524Z,7.70
2023-04-11T21:14:45.807Z,7.70
2023-04-11T21:17:13.227Z,7.60
2023-04-11T21:19:40.343Z,7.60
2023-04-11T21:22:10.489Z,7.60
2023-04-11T21:24:37.617Z,7.50
2023-04-11T21:27:04.834Z,7.40
2023-04-11T21:29:32.000Z,7.40
2023-04-11T21:31:59.199Z,7.30
2023-04-11T21:34:26.977Z,7.30
2023-04-11T21:36:54.038Z,7.20
2023-04-11T21:39:21.455Z,7.10
2023-04-11T21:41:48.655Z,7.00
2023-04-11T21:44:15.870Z,7.00
2023-04-11T21:46:43.145Z,6.90
2023-04-11T21:49:10.307Z,6.90
2023-04-11T21:51:37.410Z,6.90
2023-04-11T21:54:05.442Z,6.90
2023-04-11T21:56:32.640Z,6.80
2023-04-11T21:58:59.840Z,6.80
2023-04-11T22:01:27.345Z,6.80
2023-04-11T22:03:56.718Z,6.80
2023-04-11T22:06:26.639Z,6.80
2023-04-11T22:08:53.819Z,6.70
2023-04-11T22:11:21.071Z,6.70
2023-04-11T22:13:48.202Z,6.70
2023-04-11T22:16:15.637Z,6.60
2023-04-11T22:18:49.384Z,6.60
2023-04-11T22:21:19.865Z,6.50
2023-04-11T22:23:54.922Z,6.50
2023-04-11T22:26:35.426Z,6.40
2023-04-11T22:29:06.012Z,6.40
2023-04-11T22:31:38.990Z,6.30
2023-04-11T22:34:08.526Z,6.30
2023-04-11T22:36:35.819Z,6.30
2023-04-11T22:39:07.089Z,6.20
2023-04-11T22:41:35.621Z,6.20
2023-04-11T22:44:03.124Z,6.10
2023-04-11T22:46:34.139Z,6.10
2023-04-11T22:49:01.421Z,6.10
2023-04-11T22:51:30.372Z,6.00
2023-04-11T22:53:58.473Z,6.00
2023-04-11T22:56:25.999Z,6.00
2023-04-11T22:58:53.293Z,6.00
2023-04-11T23:01:20.508Z,5.90
2023-04-11T23:03:47.872Z,5.90
2023-04-11T23:06:15.112Z,5.80
2023-04-11T23:08:45.046Z,5.80
2023-04-11T23:11:13.041Z,5.80
2023-04-11T23:13:40.249Z,5.70
2023-04-11T23:16:09.307Z,5.70
2023-04-11T23:18:36.653Z,5.60
2023-04-11T23:21:04.369Z,5.60
2023-04-11T23:23:31.551Z,5.60
2023-04-11T23:25:58.967Z,5.50
2023-04-11T23:28:26.228Z,5.50
2023-04-11T23:30:55.282Z,5.50
2023-04-11T23:33:22.541Z,5.50
2023-04-11T23:35:49.751Z,5.40
2023-04-11T23:38:17.421Z,5.40
2023-04-11T23:40:45.488Z,5.30
2023-04-11T23:43:12.821Z,5.30
2023-04-11T23:45:39.996Z,5.20
2023-04-11T23:48:07.695Z,5.20
2023-04-11T23:50:34.845Z,5.20
2023-04-11T23:53:02.114Z,5.10
2023-04-11T23:55:30.137Z,5.10
2023-04-11T23:57:57.345Z,5.10
